Time;durP1;ratioP1;P1;durP2;ratioP2;P2;SDS_P1;SDS_P2;PMS_P1;PMS_P2;Temp;Humidity;BMP_temperature;BMP_pressure;BME280_temperature;BME280_humidity;BME280_pressure;Samples;Min_cycle;Max_cycle;Signal;HPM_P1;HPM_P2
2023/05/30 00:01:13;;;;;;;9.85;3.72;;;;;;;19.04;48.01;100972.38;4107583;28;20579;-62
2023/05/30 00:03:35;;;;;;;12.95;3.95;;;;;;;19.13;47.76;100966.13;4112865;28;20136;-62
2023/05/30 00:05:57;;;;;;;9.60;4.55;;;;;;;19.07;47.39;100963.53;4114033;28;20413;-62
2023/05/30 00:08:18;;;;;;;7.78;3.17;;;;;;;18.97;47.92;100970.72;4107515;28;20080;-62
2023/05/30 00:10:40;;;;;;;11.15;4.50;;;;;;;18.92;48.22;100972.53;4113011;28;20073;-62
2023/05/30 00:13:03;;;;;;;13.65;4.00;;;;;;;18.90;48.15;100980.44;4105968;28;20062;-62
2023/05/30 00:15:25;;;;;;;9.05;4.25;;;;;;;18.82;48.50;100983.13;4110694;28;20105;-62
2023/05/30 00:17:52;;;;;;;10.88;4.15;;;;;;;18.73;48.50;100987.63;4113166;28;20046;-62
2023/05/30 00:20:13;;;;;;;10.10;3.60;;;;;;;18.80;48.48;100974.38;4109890;28;20050;-62
2023/05/30 00:22:36;;;;;;;7.43;3.30;;;;;;;18.78;48.65;100977.94;4108464;28;20054;-62
2023/05/30 00:24:59;;;;;;;10.52;3.65;;;;;;;18.81;48.24;100988.44;4111354;28;20045;-62
2023/05/30 00:27:21;;;;;;;7.78;4.18;;;;;;;18.84;48.34;100986.63;4110883;28;20058;-62
2023/05/30 00:29:43;;;;;;;11.55;4.05;;;;;;;18.80;47.87;100984.91;4109582;28;20522;-62
2023/05/30 00:32:05;;;;;;;8.73;4.00;;;;;;;18.79;48.45;100983.19;4113050;28;20142;-62
2023/05/30 00:34:29;;;;;;;11.13;4.07;;;;;;;18.78;48.24;100984.06;4110464;28;20188;-62
2023/05/30 00:36:51;;;;;;;12.25;4.22;;;;;;;18.74;48.09;100990.25;4109550;28;20086;-62
2023/05/30 00:39:13;;;;;;;9.52;4.20;;;;;;;18.72;47.72;100989.41;4110885;28;20057;-62
2023/05/30 00:41:35;;;;;;;9.52;4.32;;;;;;;18.55;48.11;100986.09;4112424;28;20141;-62
2023/05/30 00:43:57;;;;;;;10.77;3.60;;;;;;;18.58;47.99;100988.69;4113252;28;20094;-62
2023/05/30 00:46:19;;;;;;;10.73;3.53;;;;;;;18.54;48.18;100989.59;4103521;28;20196;-62
2023/05/30 00:48:40;;;;;;;6.32;3.10;;;;;;;18.53;48.09;100987.84;4112181;28;20094;-61
2023/05/30 00:51:07;;;;;;;7.47;4.07;;;;;;;18.65;47.77;100995.63;4109999;28;20416;-62
2023/05/30 00:53:29;;;;;;;;;;;;;;;18.47;47.93;100987.03;4111615;28;20058;-62
2023/05/30 00:55:51;;;;;;;16.88;3.97;;;;;;;18.45;47.87;100986.16;4113733;28;19929;-62
2023/05/30 00:58:16;;;;;;;9.55;3.95;;;;;;;18.30;48.40;100987.19;4099213;28;20470;-62
2023/05/30 01:00:39;;;;;;;11.20;3.95;;;;;;;18.26;48.66;100985.47;4114364;28;20050;-62
2023/05/30 01:03:01;;;;;;;10.15;3.47;;;;;;;18.23;48.82;100984.63;4109229;28;20045;-62
2023/05/30 01:05:24;;;;;;;8.13;3.30;;;;;;;18.30;48.48;100983.69;4113753;28;20049;-61
2023/05/30 01:07:48;;;;;;;6.78;3.00;;;;;;;18.20;48.92;100992.56;4110938;28;20049;-61
2023/05/30 01:10:10;;;;;;;9.95;3.47;;;;;;;18.12;48.68;100990.84;4110959;28;20098;-61
2023/05/30 01:12:40;;;;;;;10.27;4.15;;;;;;;18.07;49.01;100987.38;4110695;28;20086;-62
2023/05/30 01:15:08;;;;;;;9.13;3.67;;;;;;;18.00;48.79;100979.56;4104769;28;20889;-62
2023/05/30 01:17:44;;;;;;;7.68;3.80;;;;;;;17.90;48.92;100979.66;4113141;28;20550;-61
2023/05/30 01:20:10;;;;;;;13.50;3.97;;;;;;;17.96;48.76;100984.00;4112731;28;20603;-61
2023/05/30 01:22:49;;;;;;;10.02;3.45;;;;;;;17.90;48.78;100981.38;4114358;28;20076;-62
2023/05/30 01:25:22;;;;;;;8.32;3.33;;;;;;;17.80;49.03;100975.31;4097552;28;20062;-61
2023/05/30 01:28:05;;;;;;;12.52;4.00;;;;;;;17.75;48.87;100977.09;4111837;28;20152;-61
2023/05/30 01:30:30;;;;;;;9.85;3.67;;;;;;;17.72;49.06;100980.59;4099349;28;20365;-62
2023/05/30 01:32:54;;;;;;;11.18;4.47;;;;;;;17.71;49.32;100980.59;4109212;28;20073;-62
2023/05/30 01:35:23;;;;;;;9.38;3.85;;;;;;;17.69;49.25;100975.38;4111512;28;20051;-62
2023/05/30 01:37:44;;;;;;;10.32;4.05;;;;;;;17.68;49.51;100981.50;4098874;28;20046;-61
2023/05/30 01:40:08;;;;;;;9.00;3.42;;;;;;;17.71;48.98;100984.13;4115892;28;20054;-61
2023/05/30 01:42:33;;;;;;;8.27;3.28;;;;;;;17.59;49.43;100982.44;4115152;28;20046;-62
2023/05/30 01:45:04;;;;;;;10.17;3.50;;;;;;;17.64;49.14;100974.53;4113870;28;20062;-62
2023/05/30 01:47:32;;;;;;;11.32;4.45;;;;;;;17.62;49.14;100979.81;4112254;28;20049;-61
2023/05/30 01:50:08;;;;;;;7.40;3.00;;;;;;;17.56;49.13;100977.19;4114001;28;20478;-60
2023/05/30 01:52:33;;;;;;;10.10;3.63;;;;;;;17.68;48.76;100976.22;4111436;28;20073;-62
2023/05/30 01:54:59;;;;;;;10.30;3.67;;;;;;;17.63;48.63;100978.91;4113210;28;20599;-62
2023/05/30 01:57:21;;;;;;;6.65;2.90;;;;;;;17.57;48.52;100978.94;4114013;28;20049;-62
2023/05/30 01:59:44;;;;;;;9.85;3.63;;;;;;;17.61;48.36;100978.06;4112381;28;20086;-61
2023/05/30 02:02:09;;;;;;;7.68;3.67;;;;;;;17.52;48.37;100979.84;4113063;28;20151;-62
2023/05/30 02:04:31;;;;;;;8.77;3.55;;;;;;;17.50;48.30;100979.00;4115550;28;20053;-61
2023/05/30 02:06:52;;;;;;;8.02;3.28;;;;;;;17.47;48.29;100984.28;4113648;28;20119;-61
2023/05/30 02:09:15;;;;;;;6.60;3.45;;;;;;;17.42;48.20;100985.19;4113954;28;20593;-61
2023/05/30 02:11:37;;;;;;;8.68;3.67;;;;;;;17.32;48.06;100986.13;4114217;28;20103;-62
2023/05/30 02:13:59;;;;;;;11.38;3.72;;;;;;;17.22;48.24;100979.16;4113344;28;20050;-62
2023/05/30 02:16:20;;;;;;;8.50;4.03;;;;;;;17.15;48.34;100982.69;4114941;28;20062;-61
2023/05/30 02:18:44;;;;;;;8.32;3.50;;;;;;;17.10;48.29;100983.59;4106635;28;20436;-61
2023/05/30 02:21:06;;;;;;;8.85;3.20;;;;;;;16.99;48.87;100984.50;4114144;28;20452;-62
2023/05/30 02:23:28;;;;;;;9.05;3.38;;;;;;;17.01;48.83;100981.00;4111359;28;20536;-62
2023/05/30 02:25:50;;;;;;;8.20;3.78;;;;;;;17.03;48.32;100978.38;4113688;28;20066;-61
2023/05/30 02:28:12;;;;;;;11.60;3.45;;;;;;;16.99;48.18;100981.88;4113768;28;20433;-62
2023/05/30 02:30:34;;;;;;;11.85;3.80;;;;;;;16.91;48.59;100987.19;4110204;28;20416;-62
2023/05/30 02:32:55;;;;;;;7.28;3.10;;;;;;;16.87;48.63;100988.91;4099308;28;20094;-61
2023/05/30 02:35:18;;;;;;;9.00;3.47;;;;;;;16.85;48.34;100992.38;4113524;28;20049;-62
2023/05/30 02:37:40;;;;;;;16.13;4.85;;;;;;;16.80;48.33;100997.66;4114442;28;20061;-62
2023/05/30 02:40:02;;;;;;;10.02;4.22;;;;;;;16.83;48.43;100996.78;4113743;28;20472;-62
2023/05/30 02:42:24;;;;;;;10.95;3.67;;;;;;;16.74;48.53;100993.28;4113257;28;20050;-61
2023/05/30 02:44:45;;;;;;;13.07;3.70;;;;;;;16.78;48.09;100998.53;4112256;28;20050;-61
2023/05/30 02:47:07;;;;;;;11.73;3.60;;;;;;;16.66;48.04;100995.09;4112944;28;20610;-61
2023/05/30 02:49:30;;;;;;;8.57;4.32;;;;;;;16.68;48.21;101001.19;4112160;28;20053;-62
2023/05/30 02:51:54;;;;;;;9.05;4.00;;;;;;;16.64;48.37;100995.97;4111024;28;20159;-62
2023/05/30 02:54:19;;;;;;;8.20;4.00;;;;;;;16.64;48.36;100999.44;4113940;28;20451;-62
2023/05/30 02:56:57;;;;;;;8.45;3.95;;;;;;;16.66;47.90;100997.72;4113428;28;20447;-62
2023/05/30 02:59:36;;;;;;;9.38;3.38;;;;;;;16.61;47.76;100996.84;4112864;28;20902;-62
2023/05/30 03:02:02;;;;;;;11.02;3.88;;;;;;;16.61;47.69;100996.84;4108082;28;20592;-62
2023/05/30 03:04:24;;;;;;;12.02;3.80;;;;;;;16.62;47.38;100995.97;4112735;28;20095;-62
2023/05/30 03:06:49;;;;;;;9.23;3.70;;;;;;;16.57;47.77;101002.97;4099014;28;20085;-62
2023/05/30 03:09:15;;;;;;;7.82;3.65;;;;;;;16.47;47.56;101002.13;4113231;28;20057;-62
2023/05/30 03:11:37;;;;;;;14.13;4.15;;;;;;;16.49;47.39;101008.22;4109494;28;20049;-62
2023/05/30 03:13:58;;;;;;;8.85;3.50;;;;;;;16.49;47.28;101012.63;4110789;28;20053;-61
2023/05/30 03:16:21;;;;;;;14.73;5.07;;;;;;;16.31;47.40;101009.13;4109957;28;20055;-61
2023/05/30 03:18:42;;;;;;;11.00;3.33;;;;;;;16.28;48.00;101000.38;4112272;28;20481;-62
2023/05/30 03:21:04;;;;;;;14.90;4.22;;;;;;;16.25;47.49;101014.38;4110889;28;20094;-62
2023/05/30 03:23:26;;;;;;;9.05;3.67;;;;;;;16.28;47.78;101014.38;4112858;28;20073;-62
2023/05/30 03:25:49;;;;;;;8.00;2.75;;;;;;;16.16;48.44;101019.63;4109061;28;20115;-62
2023/05/30 03:28:10;;;;;;;11.48;3.70;;;;;;;16.19;47.41;101015.25;4108571;28;20094;-62
2023/05/30 03:30:55;;;;;;;9.93;3.40;;;;;;;16.22;47.84;101022.22;4113948;28;20049;-62
2023/05/30 03:33:17;;;;;;;;;;;;;;;16.27;47.77;101019.63;4113186;28;20070;-62
2023/05/30 03:35:39;;;;;;;12.63;3.75;;;;;;;16.18;47.41;101025.75;4112749;28;20351;-62
2023/05/30 03:38:00;;;;;;;13.55;3.95;;;;;;;16.13;47.29;101028.34;4112986;28;20138;-62
2023/05/30 03:40:22;;;;;;;11.48;3.53;;;;;;;16.13;47.30;101035.38;4110858;28;20049;-62
2023/05/30 03:42:45;;;;;;;13.52;3.85;;;;;;;16.04;47.41;101046.72;4109532;28;20053;-62
2023/05/30 03:45:07;;;;;;;12.15;4.28;;;;;;;15.99;47.84;101038.84;4111877;28;20085;-62
2023/05/30 03:47:29;;;;;;;10.48;3.05;;;;;;;16.01;47.90;101030.97;4099084;28;20062;-62
2023/05/30 03:49:52;;;;;;;15.57;4.50;;;;;;;15.97;47.85;101037.97;4110122;28;20045;-62
2023/05/30 03:52:16;;;;;;;10.10;4.15;;;;;;;15.95;47.98;101039.72;4112070;28;20073;-62
2023/05/30 03:54:37;;;;;;;10.93;3.50;;;;;;;16.07;47.17;101044.09;4110223;28;20109;-62
2023/05/30 03:57:00;;;;;;;10.98;4.15;;;;;;;16.00;47.36;101037.09;4111736;28;20117;-62
2023/05/30 03:59:24;;;;;;;10.77;3.40;;;;;;;15.98;47.32;101041.47;4111493;28;20050;-61
2023/05/30 04:01:45;;;;;;;11.55;4.30;;;;;;;15.91;47.86;101040.56;4109410;28;20073;-62
2023/05/30 04:04:07;;;;;;;10.85;3.67;;;;;;;15.86;49.96;101043.19;4116117;28;20137;-60
2023/05/30 04:06:29;;;;;;;13.15;4.13;;;;;;;16.01;48.14;101047.59;4102892;28;20591;-60
2023/05/30 04:08:51;;;;;;;11.55;3.30;;;;;;;16.14;47.28;101058.09;4112020;28;20122;-60
2023/05/30 04:11:13;;;;;;;10.40;3.20;;;;;;;16.09;47.24;101049.34;4114186;28;20220;-60
2023/05/30 04:13:36;;;;;;;10.70;3.28;;;;;;;16.08;47.81;101060.69;4112660;28;20049;-60
2023/05/30 04:16:00;;;;;;;8.35;3.28;;;;;;;16.08;46.89;101065.94;4111389;28;20469;-59
2023/05/30 04:18:22;;;;;;;10.50;3.67;;;;;;;15.97;48.15;101053.69;4114427;28;20046;-60
2023/05/30 04:20:44;;;;;;;11.27;3.92;;;;;;;15.94;48.02;101063.31;4112018;28;20110;-60
2023/05/30 04:23:06;;;;;;;14.80;4.32;;;;;;;16.01;47.87;101062.47;4113656;28;20057;-59
2023/05/30 04:25:28;;;;;;;13.32;3.30;;;;;;;16.01;46.81;101058.06;4110450;28;20053;-58
2023/05/30 04:27:54;;;;;;;11.02;4.35;;;;;;;15.89;48.28;101063.31;4098207;28;20098;-58
2023/05/30 04:30:16;;;;;;;12.00;4.28;;;;;;;15.86;47.26;101058.94;4111855;28;20053;-59
2023/05/30 04:32:39;;;;;;;12.13;3.80;;;;;;;15.81;47.79;101065.03;4111130;28;20050;-58
2023/05/30 04:35:01;;;;;;;13.02;4.15;;;;;;;15.83;47.75;101068.56;4110810;28;20650;-58
2023/05/30 04:37:23;;;;;;;9.50;3.58;;;;;;;15.79;48.48;101072.03;4114570;28;20097;-58
2023/05/30 04:39:45;;;;;;;14.00;4.25;;;;;;;15.89;47.99;101068.56;4109896;28;20050;-58
2023/05/30 04:42:07;;;;;;;13.75;4.00;;;;;;;16.05;47.69;101069.47;4123642;28;20058;-58
2023/05/30 04:44:29;;;;;;;13.00;4.00;;;;;;;15.91;48.08;101069.41;4115695;28;20219;-58
2023/05/30 04:46:50;;;;;;;10.15;3.78;;;;;;;15.93;48.03;101069.44;4103445;28;20053;-58
2023/05/30 04:49:15;;;;;;;14.80;4.47;;;;;;;15.83;47.79;101074.66;4114970;28;20094;-58
2023/05/30 04:51:37;;;;;;;13.25;3.67;;;;;;;15.79;48.54;101077.28;4108443;28;20140;-59
2023/05/30 04:54:00;;;;;;;10.00;3.95;;;;;;;15.76;48.03;101082.47;4114764;28;20082;-58
2023/05/30 04:56:21;;;;;;;11.40;3.53;;;;;;;15.74;48.64;101073.72;4116765;28;20558;-58
2023/05/30 04:58:44;;;;;;;11.82;3.85;;;;;;;15.82;48.53;101086.00;4116211;28;20085;-58
2023/05/30 05:01:09;;;;;;;10.73;4.10;;;;;;;15.92;48.21;101079.03;4112740;28;20097;-58
2023/05/30 05:03:31;;;;;;;12.68;4.13;;;;;;;15.85;48.30;101077.28;4116045;28;20138;-58
2023/05/30 05:05:54;;;;;;;17.63;5.75;;;;;;;15.83;47.86;101084.28;4107093;28;20452;-58
2023/05/30 05:08:16;;;;;;;15.45;3.45;;;;;;;15.83;48.63;101092.16;4107341;28;20061;-58
2023/05/30 05:10:37;;;;;;;13.07;4.20;;;;;;;15.75;48.91;101091.22;4117495;28;20054;-58
2023/05/30 05:12:59;;;;;;;12.77;3.92;;;;;;;15.90;48.09;101083.41;4107551;28;20062;-59
2023/05/30 05:15:21;;;;;;;20.50;4.40;;;;;;;15.85;48.25;101087.78;4115200;28;20512;-59
2023/05/30 05:17:43;;;;;;;17.77;5.57;;;;;;;15.86;48.45;101089.53;4112909;28;20119;-59
2023/05/30 05:20:06;;;;;;;16.20;5.18;;;;;;;15.96;47.80;101096.53;4112460;28;20050;-60
2023/05/30 05:22:34;;;;;;;15.70;4.72;;;;;;;16.04;47.80;101093.94;4115304;28;20613;-60
2023/05/30 05:24:56;;;;;;;16.55;5.97;;;;;;;16.03;47.89;101093.06;4115447;28;20050;-64
2023/05/30 05:27:18;;;;;;;16.42;5.88;;;;;;;16.10;48.01;101093.94;4113117;28;20050;-64
2023/05/30 05:29:39;;;;;;;15.20;4.68;;;;;;;15.99;48.61;101090.41;4116270;28;20061;-64
2023/05/30 05:32:01;;;;;;;17.90;4.30;;;;;;;16.03;48.43;101100.94;4116098;28;20105;-64
2023/05/30 05:34:22;;;;;;;17.52;4.43;;;;;;;16.04;48.01;101099.16;4113004;28;20149;-65
2023/05/30 05:36:44;;;;;;;15.30;4.00;;;;;;;16.26;47.36;101102.69;4115943;28;20058;-65
2023/05/30 05:39:07;;;;;;;15.85;4.40;;;;;;;16.21;47.79;101100.06;4112679;28;20130;-65
2023/05/30 05:41:29;;;;;;;15.63;4.57;;;;;;;16.30;47.90;101111.47;4109181;28;20054;-65
2023/05/30 05:43:50;;;;;;;14.55;4.95;;;;;;;16.33;47.42;101111.47;4114540;28;20519;-65
2023/05/30 05:46:12;;;;;;;17.50;5.35;;;;;;;16.35;46.96;101110.59;4111359;28;20061;-64
2023/05/30 05:48:34;;;;;;;19.40;4.18;;;;;;;16.30;46.96;101112.34;4113778;28;20421;-64
2023/05/30 05:50:55;;;;;;;16.90;5.47;;;;;;;16.35;47.66;101113.22;4114673;28;20556;-65
2023/05/30 05:53:17;;;;;;;16.80;5.63;;;;;;;16.36;47.36;101112.31;4110485;28;20082;-65
2023/05/30 05:55:40;;;;;;;11.70;4.82;;;;;;;16.49;47.20;101117.59;4115217;28;20113;-65
2023/05/30 05:58:01;;;;;;;12.50;4.70;;;;;;;16.49;46.99;101115.84;4111998;28;20131;-64
2023/05/30 06:00:23;;;;;;;14.77;4.72;;;;;;;16.49;47.18;101118.47;4112482;28;20053;-65
2023/05/30 06:02:45;;;;;;;12.48;4.65;;;;;;;16.57;46.78;101121.09;4109037;28;20531;-65
2023/05/30 06:05:08;;;;;;;17.08;5.07;;;;;;;16.64;47.10;101120.22;4104111;28;20049;-65
2023/05/30 06:07:30;;;;;;;22.52;5.68;;;;;;;16.79;46.88;101127.19;4114511;28;20057;-65
2023/05/30 06:09:51;;;;;;;20.33;4.80;;;;;;;16.73;46.87;101125.47;4119342;28;20053;-65
2023/05/30 06:12:14;;;;;;;15.80;4.68;;;;;;;16.66;46.55;101121.09;4114548;28;20058;-65
2023/05/30 06:14:36;;;;;;;19.40;5.90;;;;;;;16.62;47.14;101118.44;4115236;28;20093;-64
2023/05/30 06:16:57;;;;;;;17.02;5.10;;;;;;;16.76;46.84;101121.94;4112180;28;20050;-64
2023/05/30 06:19:19;;;;;;;17.30;4.97;;;;;;;16.78;47.06;101122.84;4119466;28;20045;-65
2023/05/30 06:21:40;;;;;;;15.98;4.75;;;;;;;16.96;46.40;101114.09;4113198;28;20477;-65
2023/05/30 06:24:03;;;;;;;15.02;4.85;;;;;;;17.04;46.16;101112.34;4105613;28;20053;-65
2023/05/30 06:26:25;;;;;;;17.20;4.88;;;;;;;16.93;47.00;101116.72;4104082;28;20054;-65
2023/05/30 06:28:50;;;;;;;18.60;4.82;;;;;;;17.08;46.91;101123.69;4104521;28;20069;-65
2023/05/30 06:31:11;;;;;;;17.52;5.45;;;;;;;17.27;46.43;101114.00;4100536;28;20057;-65
2023/05/30 06:33:33;;;;;;;17.50;4.10;;;;;;;17.31;46.48;101120.16;4115443;28;20464;-66
2023/05/30 06:35:55;;;;;;;17.02;4.80;;;;;;;17.47;46.64;101123.59;4116283;28;20050;-65
2023/05/30 06:38:16;;;;;;;20.50;4.25;;;;;;;17.52;46.35;101121.81;4115071;28;20555;-65
2023/05/30 06:40:38;;;;;;;15.75;4.38;;;;;;;17.58;45.60;101124.41;4116125;28;20461;-65
2023/05/30 06:43:00;;;;;;;20.92;4.82;;;;;;;17.63;45.06;101122.66;4115141;28;20062;-65
2023/05/30 06:45:23;;;;;;;12.80;3.83;;;;;;;17.47;45.54;101128.88;4113742;28;20062;-65
2023/05/30 06:47:45;;;;;;;17.08;4.32;;;;;;;17.52;45.54;101127.97;4115964;28;20062;-65
2023/05/30 06:50:08;;;;;;;13.40;4.43;;;;;;;17.53;45.14;101131.47;4116219;28;20109;-65
2023/05/30 06:52:29;;;;;;;17.85;4.95;;;;;;;17.54;45.29;101128.81;4115520;28;20250;-65
2023/05/30 06:54:51;;;;;;;16.73;4.28;;;;;;;17.67;45.07;101124.41;4101599;28;20058;-65
2023/05/30 06:57:12;;;;;;;12.77;3.70;;;;;;;17.64;45.13;101127.03;4114583;28;20054;-64
2023/05/30 06:59:34;;;;;;;14.43;3.63;;;;;;;17.73;44.95;101129.63;4101044;28;20416;-64
2023/05/30 07:01:57;;;;;;;11.25;3.80;;;;;;;17.69;44.77;101122.63;4113100;28;20101;-64
2023/05/30 07:05:02;;;;;;;13.45;4.13;;;;;;;17.73;44.85;101123.50;4112452;28;20057;-64
2023/05/30 07:07:24;;;;;;;12.35;3.92;;;;;;;17.80;44.43;101126.09;4124732;28;20053;-62
2023/05/30 07:09:45;;;;;;;15.02;4.22;;;;;;;17.85;44.94;101136.56;4131998;28;20504;-62
2023/05/30 07:12:09;;;;;;;11.73;3.50;;;;;;;18.03;44.64;101130.34;4131814;28;20053;-63
2023/05/30 07:14:31;;;;;;;12.27;3.45;;;;;;;18.22;44.33;101125.00;4130736;28;20052;-63
2023/05/30 07:16:52;;;;;;;17.02;5.07;;;;;;;18.28;43.99;101133.72;4130934;28;20531;-63
2023/05/30 07:19:16;;;;;;;8.35;3.97;;;;;;;18.33;43.79;101133.69;4126013;28;20089;-62
2023/05/30 07:21:37;;;;;;;10.57;3.88;;;;;;;18.36;43.75;101120.50;4115952;28;20576;-63
2023/05/30 07:23:59;;;;;;;11.30;3.53;;;;;;;18.41;44.02;101120.47;4115135;28;20093;-63
2023/05/30 07:26:21;;;;;;;13.25;4.03;;;;;;;18.59;43.41;101122.09;4113284;28;20077;-63
2023/05/30 07:28:42;;;;;;;10.25;3.33;;;;;;;18.58;43.68;101130.88;4110402;28;20593;-63
2023/05/30 07:31:04;;;;;;;11.25;3.83;;;;;;;18.71;42.47;101132.50;4099299;28;20126;-62
2023/05/30 07:33:25;;;;;;;15.48;4.40;;;;;;;18.75;42.95;101126.34;4106907;28;20469;-62
2023/05/30 07:35:51;;;;;;;11.63;3.97;;;;;;;18.89;43.10;101135.91;4115790;28;20560;-63
2023/05/30 07:38:12;;;;;;;15.48;4.47;;;;;;;18.96;43.11;101130.56;4115897;28;20082;-63
2023/05/30 07:40:34;;;;;;;14.95;4.35;;;;;;;18.98;42.96;101138.44;4112761;28;20049;-63
2023/05/30 07:42:56;;;;;;;12.15;3.78;;;;;;;19.03;42.93;101131.38;4111874;28;20150;-63
2023/05/30 07:45:19;;;;;;;12.55;3.45;;;;;;;19.08;42.68;101134.81;4115380;28;20113;-63
2023/05/30 07:47:41;;;;;;;13.48;3.38;;;;;;;19.11;42.16;101126.88;4111424;28;20098;-63
2023/05/30 07:50:07;;;;;;;8.98;3.30;;;;;;;19.17;42.58;101121.56;4119581;23;20062;31
2023/05/30 07:52:29;;;;;;;11.70;3.97;;;;;;;19.24;42.08;101137.31;4065269;29;20518;-69
2023/05/30 07:54:51;;;;;;;14.05;4.05;;;;;;;19.21;41.67;101126.81;4067483;29;20099;-69
2023/05/30 07:57:13;;;;;;;9.23;3.47;;;;;;;19.23;42.54;101122.38;4067955;29;20055;-68
2023/05/30 07:59:34;;;;;;;13.30;4.38;;;;;;;19.39;41.44;101123.97;4066116;29;20055;-69
2023/05/30 08:01:56;;;;;;;9.32;3.55;;;;;;;19.35;42.11;101120.47;4083244;29;20047;-69
2023/05/30 08:04:17;;;;;;;12.40;4.38;;;;;;;19.31;41.63;101126.66;4082389;29;20093;-68
2023/05/30 08:06:39;;;;;;;13.10;3.67;;;;;;;19.34;41.78;101124.00;4083683;29;20066;-69
2023/05/30 08:09:02;;;;;;;10.68;4.28;;;;;;;19.52;42.03;101122.94;4068347;29;20051;-69
2023/05/30 08:11:24;;;;;;;13.00;3.95;;;;;;;19.66;41.54;101120.09;4111008;23;20464;-66
2023/05/30 08:13:47;;;;;;;9.38;3.33;;;;;;;19.57;41.70;101114.94;4112442;28;20118;-68
2023/05/30 08:16:09;;;;;;;12.73;4.30;;;;;;;19.68;41.32;101128.88;4110609;28;20555;-68
2023/05/30 08:18:31;;;;;;;18.75;4.85;;;;;;;19.89;40.27;101121.59;4109336;28;20126;-68
2023/05/30 08:20:54;;;;;;;16.00;3.80;;;;;;;19.96;40.60;101122.38;4107213;28;20077;-68
2023/05/30 08:23:16;;;;;;;10.73;3.30;;;;;;;19.80;40.41;101122.59;4099675;28;20066;-68
2023/05/30 08:25:45;;;;;;;11.98;3.63;;;;;;;19.84;40.96;101113.75;4115044;28;20142;-69
2023/05/30 08:28:07;;;;;;;15.57;4.20;;;;;;;19.94;40.91;101117.13;4101817;28;20134;-67
2023/05/30 08:30:29;;;;;;;10.13;3.83;;;;;;;20.05;40.46;101116.97;4115066;28;20117;-68
2023/05/30 08:32:55;;;;;;;11.27;4.05;;;;;;;20.18;40.17;101113.25;4099839;28;20049;-68
2023/05/30 08:35:16;;;;;;;12.02;4.05;;;;;;;20.26;39.75;101125.47;4114810;28;20082;-68
2023/05/30 08:37:38;;;;;;;11.73;4.00;;;;;;;20.34;39.98;101119.19;4114890;28;20057;-68
2023/05/30 08:40:00;;;;;;;8.55;3.78;;;;;;;20.48;39.51;101108.38;4114237;28;20053;-68
2023/05/30 08:42:24;;;;;;;13.57;4.25;;;;;;;20.60;39.20;101109.06;4113959;28;20049;-68
2023/05/30 08:44:45;;;;;;;17.67;4.63;;;;;;;20.60;39.62;101106.44;4113106;28;20401;-68
2023/05/30 08:47:11;;;;;;;9.35;3.10;;;;;;;20.76;40.34;101107.94;4113054;28;20057;-68
2023/05/30 08:49:35;;;;;;;13.65;3.88;;;;;;;21.23;38.76;101102.66;4115232;28;20396;-68
2023/05/30 08:52:02;;;;;;;17.20;4.68;;;;;;;21.23;38.13;101114.13;4099903;28;20137;-67
2023/05/30 08:54:25;;;;;;;18.65;3.47;;;;;;;21.31;38.11;101103.38;4113420;28;20038;-68
2023/05/30 08:56:50;;;;;;;12.23;3.53;;;;;;;21.22;39.10;101104.44;4111017;28;20508;-68
2023/05/30 08:59:14;;;;;;;;;;;;;;;21.32;38.96;101106.88;4113104;28;20429;-68
2023/05/30 09:01:37;;;;;;;12.82;3.95;;;;;;;21.22;38.09;101106.22;4103914;28;19929;-69
2023/05/30 09:03:59;;;;;;;10.82;3.17;;;;;;;21.14;38.26;101111.63;4101196;28;20090;-67
2023/05/30 09:06:22;;;;;;;15.43;3.63;;;;;;;21.25;38.50;101103.50;4095357;28;20139;-68
2023/05/30 09:08:45;;;;;;;8.73;3.47;;;;;;;21.43;37.94;101102.25;4111649;28;20089;-68
2023/05/30 09:11:08;;;;;;;8.88;3.35;;;;;;;21.51;37.96;101100.38;4108945;28;20409;-68
2023/05/30 09:13:29;;;;;;;16.65;4.40;;;;;;;21.48;37.84;101100.41;4107660;28;20151;-67
2023/05/30 09:15:53;;;;;;;12.57;4.07;;;;;;;21.50;38.20;101098.59;4100819;28;20066;-68
2023/05/30 09:18:16;;;;;;;11.30;3.40;;;;;;;21.54;37.78;101100.31;4114636;28;20078;-68
2023/05/30 09:20:38;;;;;;;13.68;3.70;;;;;;;21.67;37.37;101100.91;4109042;28;20050;-67
2023/05/30 09:22:59;;;;;;;10.95;3.85;;;;;;;21.67;37.14;101105.31;4101035;29;20058;-67
2023/05/30 09:25:21;;;;;;;10.93;3.35;;;;;;;21.66;37.76;101098.31;4101849;29;20479;-68
2023/05/30 09:27:46;;;;;;;11.00;3.70;;;;;;;21.79;37.37;101103.28;4101608;29;20560;-68
2023/05/30 09:30:10;;;;;;;10.32;3.88;;;;;;;21.94;37.04;101102.06;4101660;29;20106;-68
2023/05/30 09:32:34;;;;;;;9.00;2.75;;;;;;;21.96;37.17;101092.31;4101661;28;20046;-70
2023/05/30 09:34:57;;;;;;;13.77;3.83;;;;;;;21.96;36.96;101092.31;4117310;28;20134;-68
2023/05/30 09:37:19;;;;;;;14.65;3.85;;;;;;;22.02;36.73;101096.59;4103599;28;20075;-68
2023/05/30 09:39:41;;;;;;;11.13;3.58;;;;;;;21.94;36.93;101095.91;4117246;28;20574;-68
2023/05/30 09:42:07;;;;;;;11.60;3.78;;;;;;;22.01;36.74;101094.84;4117421;28;20054;-68
2023/05/30 09:44:29;;;;;;;11.35;3.55;;;;;;;22.22;36.75;101092.59;4117563;28;20057;-66
2023/05/30 09:46:55;;;;;;;9.25;4.38;;;;;;;22.26;36.41;101089.84;4117375;28;20062;-67
2023/05/30 09:49:19;;;;;;;9.15;3.70;;;;;;;22.34;36.25;101087.06;4116499;28;20543;-68
2023/05/30 09:51:42;;;;;;;11.82;3.65;;;;;;;22.27;36.35;101086.28;4116606;28;20167;-68
2023/05/30 09:54:05;;;;;;;8.70;3.72;;;;;;;22.35;35.91;101094.06;4107163;28;20061;-67
2023/05/30 09:56:31;;;;;;;9.93;3.47;;;;;;;22.40;36.00;101096.59;4112962;28;20050;-67
2023/05/30 09:58:53;;;;;;;9.18;3.10;;;;;;;22.40;36.48;101091.31;4112008;28;20412;-68
2023/05/30 10:01:16;;;;;;;10.23;3.30;;;;;;;22.61;36.36;101093.41;4102170;28;20054;-68
2023/05/30 10:03:43;;;;;;;11.20;3.50;;;;;;;22.81;36.02;101081.44;4115849;28;20049;-67
2023/05/30 10:06:12;;;;;;;13.35;3.95;;;;;;;22.85;35.57;101098.97;4101140;28;20080;-70
2023/05/30 10:08:34;;;;;;;12.77;3.65;;;;;;;22.87;35.28;101086.56;4117323;28;20127;-72
2023/05/30 10:10:55;;;;;;;9.40;3.25;;;;;;;23.04;34.52;101096.69;4106361;28;20417;-70
2023/05/30 10:13:17;;;;;;;9.82;3.55;;;;;;;23.09;34.65;101097.44;4115635;28;20049;-69
2023/05/30 10:15:39;;;;;;;10.23;3.95;;;;;;;22.99;34.77;101096.81;4117707;28;20101;-68
2023/05/30 10:18:06;;;;;;;9.85;3.80;;;;;;;22.97;34.45;101106.63;4117685;28;20117;-68
2023/05/30 10:20:29;;;;;;;8.02;3.72;;;;;;;22.88;34.38;101088.31;4115524;28;20516;-68
2023/05/30 10:22:53;;;;;;;12.85;3.67;;;;;;;22.99;34.36;101077.41;4116096;28;20053;-68
2023/05/30 10:25:18;;;;;;;8.98;3.75;;;;;;;23.00;34.48;101087.97;4116895;28;20142;-68
2023/05/30 10:27:43;;;;;;;12.85;4.07;;;;;;;22.97;34.60;101084.53;4093367;29;20115;-67
2023/05/30 10:30:06;;;;;;;;;;;;;;;23.12;33.71;101070.00;4101047;28;20050;-67
2023/05/30 10:32:32;;;;;;;12.68;3.72;;;;;;;23.00;34.35;101082.66;4114737;28;20335;-67
2023/05/30 10:35:10;;;;;;;9.82;4.25;;;;;;;23.07;34.70;101072.75;4115863;28;20054;-67
2023/05/30 10:37:33;;;;;;;8.57;3.10;;;;;;;23.05;34.04;101066.63;4116094;28;20138;-67
2023/05/30 10:40:10;;;;;;;7.13;3.45;;;;;;;23.15;34.57;101069.91;4116263;28;20134;-66
2023/05/30 10:42:39;;;;;;;8.63;3.50;;;;;;;23.29;34.48;101067.75;4115461;28;20054;-67
2023/05/30 10:45:18;;;;;;;9.70;3.92;;;;;;;23.37;34.45;101064.00;4115359;28;20215;-68
2023/05/30 10:47:46;;;;;;;10.25;3.50;;;;;;;23.39;33.42;101065.66;4101634;28;20524;-68
2023/05/30 10:50:15;;;;;;;7.75;3.55;;;;;;;23.25;34.35;101055.47;4116334;28;20105;-67
2023/05/30 10:52:36;;;;;;;10.15;3.60;;;;;;;23.30;33.69;101058.84;4115224;28;20085;-68
2023/05/30 10:55:00;;;;;;;9.93;3.92;;;;;;;23.21;34.03;101059.13;4110141;28;20093;-68
2023/05/30 10:57:27;;;;;;;12.00;4.40;;;;;;;23.28;34.62;101058.03;4114893;28;20469;-68
2023/05/30 10:59:49;;;;;;;12.20;4.40;;;;;;;23.45;33.95;101048.69;4100257;29;20577;-69
2023/05/30 11:02:11;;;;;;;8.57;3.45;;;;;;;23.39;33.89;101040.94;4100025;28;20057;-70